KTWF

Joslin Field - Magic Valley Regional Airport

Twin Falls, Idaho, USA
KTWF 211722Z 2118/2218 25004KT P6SM SCT200 FM212000 29010KT P6SM SCT150 FM220600 21011G21KT P6SM SCT250
Issued Valid From Valid To
Jul-21 @ 17:22 UTC
(6 hours ago)
Jul-21 @ 18:00 UTC
(5 hours ago)
Jul-22 @ 18:00 UTC
(in 19 hours)
Expired Click to View Jul-21 @ 18:00 to Jul-21 @ 20:00
KTWF 211722Z 2118/2218 25004KT P6SM SCT200
Wind Visibility Clouds
250° at 4 knots Greater than 6 miles
  • Scattered at 20,000' AGL
From Jul-21 @ 20:00 to Jul-22 @ 06:00
FM212000 29010KT P6SM SCT150
Wind Visibility Clouds
290° at 10 knots Greater than 6 miles
  • Scattered at 15,000' AGL
From Jul-22 @ 06:00 to Jul-22 @ 18:00
FM220600 21011G21KT P6SM SCT250
Wind Visibility Clouds
210° at 11 knots
 Gusting to 21 knots
Greater than 6 miles
  • Scattered at 25,000' AGL
KTWF 211722Z 2118/2218 25004KT P6SM SCT200 FM212000 29010KT P6SM SCT150 FM220600 21011G21KT P6SM SCT250
Issued Jul-21 @ 17:22 UTC
(6 hours ago)
Valid From Jul-21 @ 18:00 UTC
(5 hours ago)
Valid To Jul-22 @ 18:00 UTC
(in 19 hours)
Jul-21 @ 18:00 - Jul-21 @ 20:00
Wind Visibility
250° at 4 knots Greater than 6 miles
Clouds
  • Scattered at 20,000' AGL
From Jul-21 @ 20:00 - Jul-22 @ 06:00
Wind Visibility
290° at 10 knots Greater than 6 miles
Clouds
  • Scattered at 15,000' AGL
From Jul-22 @ 06:00 - Jul-22 @ 18:00
Wind Visibility
210° at 11 knots
 Gusting to 21 knots
Greater than 6 miles
Clouds
  • Scattered at 25,000' AGL